createdAt,value
2023-07-02T00:00:31.406Z,80.17
2023-07-02T00:03:34.561Z,80.55
2023-07-02T00:06:41.472Z,80.08
2023-07-02T00:09:44.547Z,79.82
2023-07-02T00:12:47.132Z,80.13
2023-07-02T00:15:49.872Z,80.10
2023-07-02T00:18:55.242Z,79.39
2023-07-02T00:21:59.332Z,79.23
2023-07-02T00:25:02.030Z,79.63
2023-07-02T00:28:05.306Z,80.02
2023-07-02T00:31:09.723Z,80.66
2023-07-02T00:34:12.752Z,79.90
2023-07-02T00:37:17.101Z,79.86
2023-07-02T00:40:20.112Z,80.37
2023-07-02T00:43:24.050Z,79.98
2023-07-02T00:46:27.360Z,79.51
2023-07-02T00:49:29.942Z,79.14
2023-07-02T00:52:32.674Z,79.08
2023-07-02T00:55:35.383Z,78.29
2023-07-02T00:58:59.797Z,78.19
2023-07-02T01:02:04.530Z,78.04
2023-07-02T01:05:07.785Z,77.80
2023-07-02T01:08:12.757Z,77.95
2023-07-02T01:11:15.854Z,77.78
2023-07-02T01:14:26.208Z,78.09
2023-07-02T01:17:38.330Z,77.58
2023-07-02T01:20:41.270Z,77.70
2023-07-02T01:23:44.693Z,77.49
2023-07-02T01:26:48.216Z,77.61
2023-07-02T01:29:54.902Z,77.45
2023-07-02T01:32:57.421Z,77.20
2023-07-02T01:36:00.259Z,77.30
2023-07-02T01:39:03.489Z,77.21
2023-07-02T01:42:18.808Z,77.26
2023-07-02T01:45:21.520Z,77.39
2023-07-02T01:48:24.277Z,77.18
2023-07-02T01:51:26.706Z,76.93
2023-07-02T01:54:29.949Z,76.80
2023-07-02T01:57:32.402Z,76.72
2023-07-02T02:00:35.188Z,76.61
2023-07-02T02:03:38.365Z,76.29
2023-07-02T02:06:42.734Z,75.97
2023-07-02T02:09:45.624Z,75.69
2023-07-02T02:12:48.384Z,75.58
2023-07-02T02:15:51.352Z,75.19
2023-07-02T02:18:54.429Z,75.52
2023-07-02T02:21:57.170Z,75.51
2023-07-02T02:24:59.651Z,75.51
2023-07-02T02:28:02.758Z,75.62
2023-07-02T02:31:05.879Z,75.57
2023-07-02T02:34:09.202Z,75.37
2023-07-02T02:37:11.909Z,75.28
2023-07-02T02:40:15.113Z,75.34
2023-07-02T02:43:18.339Z,75.37
2023-07-02T02:46:25.281Z,75.35
2023-07-02T02:49:28.250Z,75.14
2023-07-02T02:52:31.215Z,75.00
2023-07-02T02:55:34.015Z,74.12
2023-07-02T02:58:36.784Z,73.61
2023-07-02T03:01:39.921Z,73.79
2023-07-02T03:04:45.598Z,73.67
2023-07-02T03:07:48.492Z,73.21
2023-07-02T03:10:51.680Z,73.38
2023-07-02T03:13:54.537Z,73.14
2023-07-02T03:16:57.424Z,73.20
2023-07-02T03:20:00.117Z,72.78
2023-07-02T03:23:02.873Z,72.84
2023-07-02T03:26:05.297Z,72.39
2023-07-02T03:29:08.408Z,72.33
2023-07-02T03:32:10.883Z,71.91
2023-07-02T03:35:13.796Z,71.92
2023-07-02T03:38:16.285Z,71.74
2023-07-02T03:41:18.949Z,71.57
2023-07-02T03:44:21.724Z,71.25
2023-07-02T03:47:24.438Z,71.30
2023-07-02T03:50:27.169Z,70.93
2023-07-02T03:53:29.850Z,70.90
2023-07-02T03:56:32.284Z,70.97
2023-07-02T03:59:35.927Z,70.80
2023-07-02T04:02:38.866Z,70.79
2023-07-02T04:05:41.900Z,70.53
2023-07-02T04:08:45.224Z,70.52
2023-07-02T04:11:47.962Z,70.23
2023-07-02T04:14:50.484Z,69.95
2023-07-02T04:17:53.823Z,69.83
2023-07-02T04:20:57.386Z,69.78
2023-07-02T04:24:00.398Z,69.64
2023-07-02T04:27:30.471Z,69.33
2023-07-02T04:30:26.770Z,69.52
2023-07-02T04:33:36.696Z,69.26
2023-07-02T04:36:39.679Z,69.23
2023-07-02T04:39:42.437Z,69.09
2023-07-02T04:42:48.289Z,68.97
2023-07-02T04:45:51.006Z,68.93
2023-07-02T04:48:54.156Z,68.54
2023-07-02T04:51:56.893Z,68.35
2023-07-02T04:55:00.009Z,67.92
2023-07-02T04:58:02.534Z,67.91
2023-07-02T05:01:06.108Z,67.75
2023-07-02T05:04:11.333Z,67.50
2023-07-02T05:07:14.316Z,67.03
2023-07-02T05:10:16.961Z,66.63
2023-07-02T05:13:19.759Z,66.20
2023-07-02T05:16:22.333Z,65.93
2023-07-02T05:19:25.502Z,65.27
2023-07-02T05:22:28.048Z,64.70
2023-07-02T05:25:31.146Z,64.42
2023-07-02T05:28:33.888Z,63.94
2023-07-02T05:31:38.515Z,63.23
2023-07-02T05:34:55.804Z,63.12
2023-07-02T05:38:00.068Z,62.65
2023-07-02T05:41:04.745Z,62.18
2023-07-02T05:44:07.764Z,61.80
2023-07-02T05:47:10.291Z,60.73
2023-07-02T05:50:13.444Z,58.25
2023-07-02T05:53:16.012Z,57.71
2023-07-02T05:56:19.591Z,58.56
2023-07-02T05:59:22.295Z,57.11
2023-07-02T06:02:25.095Z,57.03
2023-07-02T06:05:27.965Z,55.36
2023-07-02T06:08:30.705Z,54.11
2023-07-02T06:11:33.725Z,54.59
2023-07-02T06:14:36.257Z,53.21
2023-07-02T06:17:39.109Z,54.24
2023-07-02T06:20:41.662Z,55.09
2023-07-02T06:23:46.089Z,54.37
2023-07-02T06:26:48.664Z,54.16
2023-07-02T06:29:52.819Z,53.59
2023-07-02T06:32:56.266Z,51.93
2023-07-02T06:35:59.420Z,50.08
2023-07-02T06:39:02.281Z,49.39
2023-07-02T06:42:05.275Z,48.67
2023-07-02T06:45:08.844Z,48.50
2023-07-02T06:48:11.899Z,48.67
2023-07-02T06:51:16.107Z,47.96
2023-07-02T06:54:18.959Z,48.51
2023-07-02T06:57:21.733Z,49.77
2023-07-02T07:00:24.880Z,48.99
2023-07-02T07:03:27.429Z,48.92
2023-07-02T07:06:30.717Z,47.72
2023-07-02T07:09:33.226Z,46.33
2023-07-02T07:12:36.365Z,46.06
2023-07-02T07:15:39.595Z,46.54
2023-07-02T07:18:44.690Z,47.86
2023-07-02T07:21:47.363Z,47.42
2023-07-02T07:24:50.127Z,47.48
2023-07-02T07:27:53.541Z,47.49
2023-07-02T07:30:56.525Z,48.23
2023-07-02T07:33:59.049Z,49.73
2023-07-02T07:37:02.072Z,48.64
2023-07-02T07:40:07.278Z,47.52
2023-07-02T07:43:10.097Z,47.28
2023-07-02T07:46:13.064Z,47.08
2023-07-02T07:49:16.110Z,46.04
2023-07-02T07:52:18.770Z,45.03
2023-07-02T07:55:21.730Z,45.10
2023-07-02T07:58:25.605Z,44.20
2023-07-02T08:01:29.382Z,44.32
2023-07-02T08:04:32.572Z,43.60
2023-07-02T08:07:35.409Z,44.10
2023-07-02T08:10:38.346Z,43.21
2023-07-02T08:13:41.067Z,43.10
2023-07-02T08:16:45.443Z,42.36
2023-07-02T08:19:47.965Z,41.85
2023-07-02T08:22:52.502Z,41.44
2023-07-02T08:25:55.303Z,40.09
2023-07-02T08:28:58.333Z,41.00
2023-07-02T08:32:01.069Z,41.75
2023-07-02T08:35:05.405Z,41.55
2023-07-02T08:38:09.465Z,42.96
2023-07-02T08:41:13.539Z,43.14
2023-07-02T08:44:20.997Z,43.31
2023-07-02T08:47:24.189Z,44.14
2023-07-02T08:50:26.928Z,42.23
2023-07-02T08:53:34.842Z,41.61
2023-07-02T08:56:37.622Z,41.72
2023-07-02T08:59:40.677Z,41.14
2023-07-02T09:02:43.134Z,41.44
2023-07-02T09:05:53.588Z,40.32
2023-07-02T09:09:05.055Z,39.17
2023-07-02T09:12:08.712Z,39.24
2023-07-02T09:15:11.481Z,38.90
2023-07-02T09:18:22.311Z,38.52
2023-07-02T09:21:27.656Z,39.92
2023-07-02T09:24:32.416Z,40.83
2023-07-02T09:27:42.538Z,40.96
2023-07-02T09:30:56.569Z,41.60
2023-07-02T09:34:03.818Z,41.91
2023-07-02T09:37:07.330Z,41.39
2023-07-02T09:40:10.545Z,42.09
2023-07-02T09:43:13.826Z,41.07
2023-07-02T09:46:16.634Z,42.34
2023-07-02T09:49:21.513Z,43.16
2023-07-02T09:52:24.751Z,41.36
2023-07-02T09:55:28.042Z,39.25
2023-07-02T09:58:32.968Z,39.71
2023-07-02T10:01:36.122Z,39.35
2023-07-02T10:04:49.324Z,41.08
2023-07-02T10:07:52.289Z,42.47
2023-07-02T10:10:55.352Z,40.26
2023-07-02T10:14:01.259Z,40.07
2023-07-02T10:17:04.670Z,39.39
2023-07-02T10:20:13.108Z,39.42
2023-07-02T10:23:16.277Z,38.48
2023-07-02T10:26:20.162Z,38.54
2023-07-02T10:29:25.507Z,38.67
2023-07-02T10:32:32.449Z,39.53
2023-07-02T10:35:35.888Z,39.59
2023-07-02T10:38:38.415Z,38.38
2023-07-02T10:41:41.613Z,39.10
2023-07-02T10:44:54.256Z,37.80
2023-07-02T10:47:57.325Z,38.02
2023-07-02T10:50:59.969Z,37.91
2023-07-02T10:54:05.732Z,36.93
2023-07-02T10:57:09.179Z,37.33
2023-07-02T11:00:12.727Z,36.76
2023-07-02T11:03:20.398Z,37.23
2023-07-02T11:06:23.356Z,37.32
2023-07-02T11:09:26.150Z,36.64
2023-07-02T11:12:31.969Z,36.99
2023-07-02T11:15:39.717Z,36.47
2023-07-02T11:18:42.533Z,37.08
2023-07-02T11:21:53.072Z,37.02
2023-07-02T11:24:56.178Z,37.73
2023-07-02T11:28:06.131Z,35.58
2023-07-02T11:31:10.329Z,36.49
2023-07-02T11:34:18.988Z,37.05
2023-07-02T11:37:22.532Z,37.19
2023-07-02T11:40:24.952Z,37.75
2023-07-02T11:43:27.818Z,35.90
2023-07-02T11:46:30.409Z,36.00
2023-07-02T11:49:33.768Z,36.67
2023-07-02T11:52:36.296Z,35.98
2023-07-02T11:55:39.175Z,36.42
2023-07-02T11:58:43.180Z,36.25
2023-07-02T12:01:45.962Z,36.29
2023-07-02T12:04:49.074Z,37.50
2023-07-02T12:07:52.632Z,36.81
2023-07-02T12:10:55.541Z,36.43
2023-07-02T12:13:58.181Z,36.79
2023-07-02T12:17:05.108Z,36.83
2023-07-02T12:20:08.337Z,37.62
2023-07-02T12:23:13.921Z,37.39
2023-07-02T12:26:16.562Z,37.67
2023-07-02T12:29:19.498Z,39.18
2023-07-02T12:32:22.099Z,38.50
2023-07-02T12:35:25.135Z,38.11
2023-07-02T12:38:27.776Z,37.92
2023-07-02T12:41:31.164Z,36.62
2023-07-02T12:44:33.823Z,37.76
2023-07-02T12:47:36.634Z,36.96
2023-07-02T12:50:39.774Z,36.78
2023-07-02T12:53:42.488Z,36.86
2023-07-02T12:56:45.173Z,37.68
2023-07-02T12:59:48.183Z,40.20
2023-07-02T13:03:02.769Z,39.14
2023-07-02T13:06:07.215Z,38.51
2023-07-02T13:09:10.192Z,40.25
2023-07-02T13:12:13.381Z,39.84
2023-07-02T13:15:15.882Z,39.67
2023-07-02T13:18:19.008Z,38.59
2023-07-02T13:21:21.730Z,39.62
2023-07-02T13:24:24.875Z,39.97
2023-07-02T13:27:27.349Z,40.80
2023-07-02T13:30:32.162Z,40.29
2023-07-02T13:33:35.035Z,40.23
2023-07-02T13:36:37.743Z,39.87
2023-07-02T13:39:40.383Z,40.92
2023-07-02T13:42:43.711Z,41.62
2023-07-02T13:45:46.359Z,41.49
2023-07-02T13:48:49.299Z,42.84
2023-07-02T13:51:52.030Z,43.19
2023-07-02T13:54:55.107Z,42.29
2023-07-02T13:57:58.491Z,41.11
2023-07-02T14:01:01.522Z,39.33
2023-07-02T14:04:05.653Z,40.25
2023-07-02T14:07:08.414Z,40.06
2023-07-02T14:10:13.601Z,39.40
2023-07-02T14:13:16.078Z,38.98
2023-07-02T14:16:18.987Z,38.42
2023-07-02T14:19:21.790Z,37.94
2023-07-02T14:22:24.824Z,37.78
2023-07-02T14:25:40.694Z,37.03
2023-07-02T14:28:44.661Z,37.13
2023-07-02T14:31:47.383Z,37.77
2023-07-02T14:34:50.239Z,37.35
2023-07-02T14:37:53.136Z,37.47
2023-07-02T14:40:57.341Z,38.74
2023-07-02T14:43:59.997Z,38.87
2023-07-02T14:47:03.078Z,38.35
2023-07-02T14:50:06.745Z,38.32
2023-07-02T14:53:09.505Z,38.92
2023-07-02T14:56:12.216Z,38.14
2023-07-02T14:59:15.367Z,39.12
2023-07-02T15:02:18.290Z,39.18
2023-07-02T15:05:21.357Z,39.88
2023-07-02T15:08:24.129Z,40.92
2023-07-02T15:11:29.247Z,41.07
2023-07-02T15:14:32.784Z,40.74
2023-07-02T15:17:36.365Z,40.62
2023-07-02T15:20:39.747Z,41.46
2023-07-02T15:23:42.529Z,42.10
2023-07-02T15:26:45.309Z,42.80
2023-07-02T15:29:48.477Z,42.67
2023-07-02T15:32:51.342Z,42.84
2023-07-02T15:35:54.460Z,42.58
2023-07-02T15:38:57.299Z,43.53
2023-07-02T15:42:01.017Z,43.11
2023-07-02T15:45:03.959Z,42.78
2023-07-02T15:48:07.308Z,42.01
2023-07-02T15:51:10.600Z,42.40
2023-07-02T15:54:13.744Z,41.69
2023-07-02T15:57:16.466Z,40.27
2023-07-02T16:00:19.556Z,40.48
2023-07-02T16:03:24.453Z,40.65
2023-07-02T16:06:35.171Z,40.58
2023-07-02T16:09:38.355Z,41.08
2023-07-02T16:12:43.014Z,41.84
2023-07-02T16:15:45.920Z,41.91
2023-07-02T16:18:48.721Z,42.66
2023-07-02T16:21:51.691Z,43.05
2023-07-02T16:24:54.230Z,43.48
2023-07-02T16:27:57.060Z,43.85
2023-07-02T16:30:59.635Z,43.96
2023-07-02T16:34:03.532Z,44.20
2023-07-02T16:37:06.537Z,44.66
2023-07-02T16:40:10.669Z,45.11
2023-07-02T16:43:13.225Z,44.99
2023-07-02T16:46:15.947Z,44.16
2023-07-02T16:49:19.022Z,44.31
2023-07-02T16:52:21.790Z,43.48
2023-07-02T16:55:24.275Z,43.55
2023-07-02T16:58:29.687Z,42.82
2023-07-02T17:01:32.315Z,44.40
2023-07-02T17:04:35.115Z,45.81
2023-07-02T17:07:37.965Z,45.46
2023-07-02T17:10:40.947Z,45.53
2023-07-02T17:13:43.532Z,45.80
2023-07-02T17:16:46.293Z,45.59
2023-07-02T17:19:51.314Z,44.87
2023-07-02T17:22:54.143Z,44.73
2023-07-02T17:26:07.855Z,45.86
2023-07-02T17:29:11.096Z,46.28
2023-07-02T17:32:13.808Z,46.43
2023-07-02T17:35:17.357Z,46.49
2023-07-02T17:38:23.126Z,46.73
2023-07-02T17:41:25.875Z,47.20
2023-07-02T17:44:31.720Z,47.10
2023-07-02T17:47:36.909Z,47.79
2023-07-02T17:50:39.443Z,47.52
2023-07-02T17:53:42.285Z,48.15
2023-07-02T17:56:50.001Z,48.45
2023-07-02T17:59:56.717Z,48.49
2023-07-02T18:02:59.649Z,48.39
2023-07-02T18:06:02.660Z,48.96
2023-07-02T18:09:06.071Z,48.91
2023-07-02T18:12:11.206Z,49.12
2023-07-02T18:15:14.264Z,49.15
2023-07-02T18:18:17.958Z,49.35
2023-07-02T18:21:20.821Z,49.35
2023-07-02T18:24:24.536Z,49.55
2023-07-02T18:27:27.321Z,49.45
2023-07-02T18:30:30.837Z,49.32
2023-07-02T18:33:33.835Z,49.70
2023-07-02T18:36:38.333Z,50.29
2023-07-02T18:39:42.246Z,50.24
2023-07-02T18:42:47.550Z,50.55
2023-07-02T18:45:53.416Z,50.93
2023-07-02T18:48:56.390Z,51.95
2023-07-02T18:51:58.981Z,52.09
2023-07-02T18:55:02.796Z,51.84
2023-07-02T18:58:05.749Z,52.05
2023-07-02T19:01:11.381Z,51.13
2023-07-02T19:04:14.569Z,51.38
2023-07-02T19:07:18.219Z,51.46
2023-07-02T19:10:23.139Z,51.58
2023-07-02T19:13:26.228Z,51.16
2023-07-02T19:16:29.171Z,51.75
2023-07-02T19:19:32.296Z,52.10
2023-07-02T19:22:34.800Z,52.44
2023-07-02T19:25:38.871Z,52.42
2023-07-02T19:28:41.889Z,52.64
2023-07-02T19:31:46.647Z,52.65
2023-07-02T19:34:49.166Z,52.91
2023-07-02T19:37:52.188Z,53.01
2023-07-02T19:40:57.481Z,53.36
2023-07-02T19:44:00.540Z,53.58
2023-07-02T19:47:03.672Z,54.10
2023-07-02T19:50:07.142Z,53.70
2023-07-02T19:53:09.935Z,54.22
2023-07-02T19:56:13.014Z,54.58
2023-07-02T19:59:15.853Z,54.35
2023-07-02T20:02:20.265Z,55.05
2023-07-02T20:05:23.388Z,54.88
2023-07-02T20:08:26.068Z,55.56
2023-07-02T20:11:28.865Z,55.55
2023-07-02T20:14:31.727Z,55.36
2023-07-02T20:17:37.176Z,55.80
2023-07-02T20:20:40.029Z,56.19
2023-07-02T20:23:42.877Z,56.08
2023-07-02T20:26:45.612Z,56.69
2023-07-02T20:29:50.545Z,56.56
2023-07-02T20:32:53.176Z,57.08
2023-07-02T20:35:56.143Z,56.88
2023-07-02T20:39:00.459Z,57.11
2023-07-02T20:42:05.660Z,57.14
2023-07-02T20:45:13.430Z,57.38
2023-07-02T20:48:16.455Z,57.51
2023-07-02T20:51:19.261Z,57.63
2023-07-02T20:54:22.019Z,58.44
2023-07-02T20:57:24.693Z,58.50
2023-07-02T21:00:27.497Z,58.20
2023-07-02T21:03:30.417Z,58.04
2023-07-02T21:06:37.878Z,58.38
2023-07-02T21:09:40.433Z,58.19
2023-07-02T21:12:43.500Z,58.32
2023-07-02T21:15:57.174Z,58.23
2023-07-02T21:19:00.435Z,58.69
2023-07-02T21:22:03.029Z,58.87
2023-07-02T21:25:06.308Z,59.22
2023-07-02T21:28:09.201Z,59.19
2023-07-02T21:31:15.609Z,58.78
2023-07-02T21:34:18.583Z,58.69
2023-07-02T21:37:22.248Z,59.08
2023-07-02T21:40:24.958Z,59.71
2023-07-02T21:43:27.946Z,59.89
2023-07-02T21:46:30.566Z,59.75
2023-07-02T21:49:33.513Z,60.07
2023-07-02T21:52:35.943Z,60.33
2023-07-02T21:55:38.866Z,60.50
2023-07-02T21:58:41.674Z,61.32
2023-07-02T22:01:44.689Z,61.30
2023-07-02T22:04:47.605Z,61.49
2023-07-02T22:07:50.287Z,61.24
2023-07-02T22:10:53.325Z,62.72
2023-07-02T22:13:56.066Z,62.04
2023-07-02T22:17:08.503Z,62.85
2023-07-02T22:20:14.757Z,62.80
2023-07-02T22:23:17.751Z,62.53
2023-07-02T22:26:20.214Z,62.79
2023-07-02T22:29:23.825Z,63.00
2023-07-02T22:32:26.315Z,63.42
2023-07-02T22:35:29.731Z,63.75
2023-07-02T22:38:32.246Z,63.47
2023-07-02T22:41:34.932Z,63.35
2023-07-02T22:44:37.846Z,63.60
2023-07-02T22:47:41.467Z,63.62
2023-07-02T22:50:44.025Z,64.23
2023-07-02T22:53:46.841Z,64.55
2023-07-02T22:56:49.292Z,64.52
2023-07-02T22:59:52.273Z,64.28
2023-07-02T23:02:54.770Z,65.13
2023-07-02T23:05:57.588Z,64.94
2023-07-02T23:09:00.313Z,65.35
2023-07-02T23:12:03.385Z,65.73
2023-07-02T23:15:14.023Z,65.25
2023-07-02T23:18:16.805Z,65.66
2023-07-02T23:21:19.511Z,65.48
2023-07-02T23:24:22.574Z,66.11
2023-07-02T23:27:26.550Z,66.46
2023-07-02T23:30:34.914Z,66.53
2023-07-02T23:33:38.409Z,66.44
2023-07-02T23:36:45.593Z,66.76
2023-07-02T23:39:52.432Z,66.80
2023-07-02T23:42:55.754Z,67.16
2023-07-02T23:45:58.239Z,67.69
2023-07-02T23:49:01.664Z,67.77
2023-07-02T23:52:04.287Z,67.60
2023-07-02T23:55:10.590Z,68.21
2023-07-02T23:58:13.129Z,67.86
